createdAt,value
2022-12-11T00:00:28.704Z,101184.47
2022-12-11T00:02:56.698Z,101177.47
2022-12-11T00:05:24.115Z,101180.97
2022-12-11T00:07:50.959Z,101182.69
2022-12-11T00:10:17.876Z,101183.50
2022-12-11T00:12:44.577Z,101174.69
2022-12-11T00:15:11.662Z,101172.22
2022-12-11T00:17:38.831Z,101178.31
2022-12-11T00:20:09.222Z,101182.69
2022-12-11T00:22:35.943Z,101178.31
2022-12-11T00:25:02.649Z,101168.72
2022-12-11T00:27:29.641Z,101167.72
2022-12-11T00:29:56.354Z,101165.91
2022-12-11T00:32:23.032Z,101158.16
2022-12-11T00:34:56.294Z,101158.97
2022-12-11T00:37:23.602Z,101165.06
2022-12-11T00:43:04.454Z,101159.72
2022-12-11T00:45:31.234Z,101159.72
2022-12-11T00:47:57.923Z,101152.56
2022-12-11T00:50:24.633Z,101142.88
2022-12-11T00:52:51.343Z,101149.91
2022-12-11T00:55:18.363Z,101145.50
2022-12-11T00:57:45.020Z,101142.88
2022-12-11T01:00:12.899Z,101130.56
2022-12-11T01:02:39.659Z,101142.91
2022-12-11T01:05:06.829Z,101143.16
2022-12-11T01:07:33.497Z,101145.72
2022-12-11T01:10:18.737Z,101139.47
2022-12-11T01:12:45.497Z,101135.91
2022-12-11T01:15:12.562Z,101137.56
2022-12-11T01:17:43.242Z,101139.31
2022-12-11T01:20:10.273Z,101138.44
2022-12-11T01:22:36.934Z,101139.34
2022-12-11T01:25:04.183Z,101145.53
2022-12-11T01:27:31.144Z,101139.50
2022-12-11T01:29:57.836Z,101138.75
2022-12-11T01:32:24.631Z,101141.34
2022-12-11T01:34:51.408Z,101149.28
2022-12-11T01:37:18.117Z,101149.41
2022-12-11T01:39:44.747Z,101148.53
2022-12-11T01:42:17.957Z,101147.63
2022-12-11T01:44:47.141Z,101153.78
2022-12-11T01:47:14.130Z,101160.06
2022-12-11T01:49:41.934Z,101153.00
2022-12-11T01:52:15.533Z,101150.31
2022-12-11T01:54:45.781Z,101156.50
2022-12-11T01:57:15.399Z,101159.25
2022-12-11T01:59:46.502Z,101145.97
2022-12-11T02:02:24.903Z,101153.16
2022-12-11T02:04:51.738Z,101152.28
2022-12-11T02:07:18.418Z,101152.25
2022-12-11T02:09:47.690Z,101148.72
2022-12-11T02:12:18.687Z,101142.66
2022-12-11T02:14:45.318Z,101153.19
2022-12-11T02:17:23.730Z,101146.16
2022-12-11T02:20:15.442Z,101146.13
2022-12-11T02:22:55.187Z,101148.75
2022-12-11T02:25:33.784Z,101140.81
2022-12-11T02:28:24.370Z,101139.16
2022-12-11T02:30:57.238Z,101150.66
2022-12-11T02:33:37.168Z,101153.28
2022-12-11T02:36:05.513Z,101161.16
2022-12-11T02:38:36.172Z,101155.00
2022-12-11T02:41:05.667Z,101155.03
2022-12-11T02:43:34.397Z,101156.78
2022-12-11T02:46:05.826Z,101154.13
2022-12-11T02:48:34.298Z,101147.97
2022-12-11T02:51:01.897Z,101152.38
2022-12-11T02:53:32.372Z,101156.78
2022-12-11T02:56:24.591Z,101147.09
2022-12-11T02:58:59.232Z,101150.63
2022-12-11T03:01:27.441Z,101145.34
2022-12-11T03:03:55.445Z,101151.50
2022-12-11T03:06:26.826Z,101155.91
2022-12-11T03:08:55.138Z,101151.50
2022-12-11T03:11:21.928Z,101152.38
2022-12-11T03:13:48.789Z,101157.69
2022-12-11T03:16:32.451Z,101159.50
2022-12-11T03:19:03.049Z,101156.00
2022-12-11T03:21:40.441Z,101157.75
2022-12-11T03:24:14.298Z,101152.44
2022-12-11T03:26:45.504Z,101165.66
2022-12-11T03:29:20.200Z,101155.09
2022-12-11T03:32:03.527Z,101154.22
2022-12-11T03:34:37.595Z,101148.88
2022-12-11T03:37:06.381Z,101148.84
2022-12-11T03:39:38.498Z,101154.16
2022-12-11T03:42:08.332Z,101154.22
2022-12-11T03:44:36.492Z,101148.94
2022-12-11T03:47:06.547Z,101149.78
2022-12-11T03:49:41.363Z,101154.22
2022-12-11T03:52:11.626Z,101155.09
2022-12-11T03:54:40.172Z,101146.22
2022-12-11T03:57:10.000Z,101158.56
2022-12-11T03:59:36.871Z,101155.03
2022-12-11T04:02:11.257Z,101152.38
2022-12-11T04:04:39.366Z,101154.16
2022-12-11T04:07:06.708Z,101154.13
2022-12-11T04:09:34.010Z,101143.56
2022-12-11T04:12:01.037Z,101143.53
2022-12-11T04:14:46.320Z,101140.91
2022-12-11T04:17:32.974Z,101129.47
2022-12-11T04:20:18.585Z,101135.72
2022-12-11T04:23:03.991Z,101137.50
2022-12-11T04:25:30.701Z,101141.88
2022-12-11T04:27:57.428Z,101135.72
2022-12-11T04:30:32.334Z,101139.19
2022-12-11T04:33:01.095Z,101141.84
2022-12-11T04:35:28.097Z,101138.34
2022-12-11T04:37:54.842Z,101132.19
2022-12-11T04:40:21.916Z,101135.72
2022-12-11T04:42:48.780Z,101143.63
2022-12-11T04:45:15.472Z,101140.13
2022-12-11T04:47:42.591Z,101142.72
2022-12-11T04:50:12.325Z,101143.63
2022-12-11T04:52:39.177Z,101140.97
2022-12-11T04:55:07.642Z,101144.47
2022-12-11T04:57:34.996Z,101149.78
2022-12-11T05:00:02.169Z,101144.50
2022-12-11T05:02:28.991Z,101141.84
2022-12-11T05:04:55.799Z,101152.44
2022-12-11T05:07:22.490Z,101156.84
2022-12-11T05:09:49.222Z,101144.47
2022-12-11T05:12:15.859Z,101147.13
2022-12-11T05:14:42.551Z,101148.91
2022-12-11T05:17:09.297Z,101147.13
2022-12-11T05:19:36.026Z,101146.25
2022-12-11T05:22:02.683Z,101157.69
2022-12-11T05:24:29.541Z,101147.13
2022-12-11T05:26:56.246Z,101138.22
2022-12-11T05:29:23.183Z,101144.38
2022-12-11T05:31:50.130Z,101154.13
2022-12-11T05:34:16.905Z,101151.50
2022-12-11T05:36:43.558Z,101143.50
2022-12-11T05:39:12.048Z,101144.47
2022-12-11T05:41:38.970Z,101133.91
2022-12-11T05:44:05.980Z,101134.75
2022-12-11T05:46:32.800Z,101124.19
2022-12-11T05:49:03.971Z,101124.22
2022-12-11T05:51:31.646Z,101124.19
2022-12-11T05:53:58.461Z,101126.81
2022-12-11T05:56:33.534Z,101126.84
2022-12-11T05:59:04.032Z,101132.16
2022-12-11T06:01:34.908Z,101130.38
2022-12-11T06:04:02.298Z,101131.28
2022-12-11T06:06:29.370Z,101132.16
2022-12-11T06:08:57.659Z,101131.31
2022-12-11T06:11:26.124Z,101143.63
2022-12-11T06:13:53.316Z,101144.50
2022-12-11T06:16:21.024Z,101147.16
2022-12-11T06:18:48.534Z,101149.78
2022-12-11T06:21:27.921Z,101151.56
2022-12-11T06:23:56.799Z,101154.19
2022-12-11T06:26:24.170Z,101159.47
2022-12-11T06:28:51.153Z,101155.97
2022-12-11T06:31:19.043Z,101146.22
2022-12-11T06:33:46.508Z,101142.66
2022-12-11T06:36:16.363Z,101148.88
2022-12-11T06:38:43.848Z,101148.00
2022-12-11T06:41:11.518Z,101155.06
2022-12-11T06:43:40.360Z,101149.78
2022-12-11T06:46:13.051Z,101132.16
2022-12-11T06:48:42.319Z,101148.88
2022-12-11T06:51:12.399Z,101147.13
2022-12-11T06:53:40.070Z,101155.06
2022-12-11T06:56:13.063Z,101150.63
2022-12-11T06:58:41.615Z,101155.91
2022-12-11T07:01:26.286Z,101144.47
2022-12-11T07:03:58.345Z,101151.50
2022-12-11T07:06:26.972Z,101152.38
2022-12-11T07:08:53.772Z,101154.00
2022-12-11T07:11:21.760Z,101167.28
2022-12-11T07:13:48.976Z,101172.59
2022-12-11T07:16:17.018Z,101175.28
2022-12-11T07:18:48.114Z,101175.28
2022-12-11T07:21:15.181Z,101176.13
2022-12-11T07:23:42.603Z,101171.66
2022-12-11T07:26:16.149Z,101169.94
2022-12-11T07:28:43.401Z,101171.69
2022-12-11T07:31:13.498Z,101173.47
2022-12-11T07:33:41.546Z,101180.53
2022-12-11T07:36:11.903Z,101176.16
2022-12-11T07:38:39.491Z,101180.56
2022-12-11T07:41:09.235Z,101181.44
2022-12-11T07:43:38.534Z,101182.28
2022-12-11T07:46:08.213Z,101185.81
2022-12-11T07:48:35.994Z,101184.91
2022-12-11T07:51:11.296Z,101181.41
2022-12-11T07:53:38.802Z,101177.91
2022-12-11T07:56:05.896Z,101185.81
2022-12-11T07:58:32.851Z,101179.63
2022-12-11T08:00:59.657Z,101183.19
2022-12-11T08:03:26.455Z,101183.16
2022-12-11T08:05:53.543Z,101186.69
2022-12-11T08:08:20.565Z,101186.72
2022-12-11T08:10:47.399Z,101190.31
2022-12-11T08:13:14.443Z,101185.00
2022-12-11T08:15:41.709Z,101181.50
2022-12-11T08:18:11.117Z,101188.53
2022-12-11T08:20:39.296Z,101184.19
2022-12-11T08:23:06.175Z,101184.13
2022-12-11T08:25:33.061Z,101184.13
2022-12-11T08:27:59.792Z,101190.28
2022-12-11T08:30:26.512Z,101174.34
2022-12-11T08:32:53.355Z,101172.56
2022-12-11T08:35:20.114Z,101181.38
2022-12-11T08:37:47.491Z,101177.81
2022-12-11T08:40:14.471Z,101167.22
2022-12-11T08:42:41.297Z,101171.53
2022-12-11T08:45:12.065Z,101164.50
2022-12-11T08:47:39.029Z,101162.66
2022-12-11T08:50:06.204Z,101160.84
2022-12-11T08:52:34.961Z,101152.69
2022-12-11T08:55:01.791Z,101152.69
2022-12-11T08:57:28.850Z,101146.47
2022-12-11T08:59:55.533Z,101141.06
2022-12-11T09:02:22.377Z,101140.13
2022-12-11T09:04:49.131Z,101142.78
2022-12-11T09:07:15.889Z,101142.66
2022-12-11T09:09:49.705Z,101140.88
2022-12-11T09:12:17.178Z,101131.88
2022-12-11T09:14:44.118Z,101132.63
2022-12-11T09:17:10.772Z,101126.44
2022-12-11T09:19:37.584Z,101134.28
2022-12-11T09:22:04.238Z,101125.06
2022-12-11T09:24:31.020Z,101120.81
2022-12-11T09:26:57.714Z,101113.66
2022-12-11T09:29:24.503Z,101116.06
2022-12-11T09:31:51.200Z,101122.78
2022-12-11T09:34:17.965Z,101118.94
2022-12-11T09:36:44.769Z,101131.09
2022-12-11T09:39:13.042Z,101128.31
2022-12-11T09:41:42.982Z,101115.13
2022-12-11T09:44:15.507Z,101107.69
2022-12-11T09:46:43.533Z,101114.47
2022-12-11T09:49:41.290Z,101103.50
2022-12-11T09:52:15.765Z,101100.69
2022-12-11T09:54:50.538Z,101089.16
2022-12-11T09:57:25.828Z,101098.09
2022-12-11T10:00:05.556Z,101083.63
2022-12-11T10:02:50.733Z,101077.19
2022-12-11T10:05:20.240Z,101077.19
2022-12-11T10:08:17.225Z,101070.16
2022-12-11T10:10:54.208Z,101061.19
2022-12-11T10:14:11.550Z,101056.06
2022-12-11T10:16:46.645Z,101067.91
2022-12-11T10:19:20.447Z,101055.63
2022-12-11T10:21:51.576Z,101055.56
2022-12-11T10:25:05.652Z,101069.75
2022-12-11T10:27:22.307Z,101076.78
2022-12-11T10:33:07.855Z,101069.53
2022-12-11T10:38:45.215Z,101062.69
2022-12-11T10:41:17.027Z,101066.34
2022-12-11T10:43:46.353Z,101065.25
2022-12-11T10:46:20.470Z,101065.25
2022-12-11T10:48:54.676Z,101060.97
2022-12-11T10:51:24.275Z,101052.69
2022-12-11T10:54:02.627Z,101043.72
2022-12-11T10:56:35.127Z,101049.13
2022-12-11T10:59:02.325Z,101056.09
2022-12-11T11:01:34.865Z,101046.50
2022-12-11T11:04:15.326Z,101050.88
2022-12-11T11:06:47.207Z,101056.97
2022-12-11T11:09:30.612Z,101060.41
2022-12-11T11:11:57.504Z,101059.81
2022-12-11T11:14:24.237Z,101059.63
2022-12-11T11:16:58.419Z,101054.47
2022-12-11T11:19:29.498Z,101049.97
2022-12-11T11:22:04.969Z,101046.44
2022-12-11T11:24:43.437Z,101047.03
2022-12-11T11:27:28.552Z,101038.09
2022-12-11T11:29:59.172Z,101034.31
2022-12-11T11:32:39.021Z,101029.63
2022-12-11T11:35:17.512Z,101030.75
2022-12-11T11:38:09.589Z,101042.03
2022-12-11T11:41:04.796Z,101046.47
2022-12-11T11:43:43.271Z,101038.41
2022-12-11T11:46:12.964Z,101027.63
2022-12-11T11:48:48.623Z,101031.19
2022-12-11T11:51:55.530Z,101031.13
2022-12-11T11:54:33.733Z,101030.22
2022-12-11T11:57:11.575Z,101029.50
2022-12-11T11:59:49.927Z,101033.91
2022-12-11T12:02:18.545Z,101033.91
2022-12-11T12:04:51.572Z,101037.50
2022-12-11T12:07:18.464Z,101042.13
2022-12-11T12:09:57.306Z,101041.06
2022-12-11T12:13:03.418Z,101043.94
2022-12-11T12:15:57.709Z,101049.19
2022-12-11T12:18:45.498Z,101059.91
2022-12-11T12:21:33.827Z,101057.19
2022-12-11T12:24:12.286Z,101053.56
2022-12-11T12:26:47.647Z,101056.09
2022-12-11T12:29:17.623Z,101056.19
2022-12-11T12:32:00.920Z,101057.13
2022-12-11T12:34:54.264Z,101061.72
2022-12-11T12:37:30.179Z,101056.31
2022-12-11T12:40:02.205Z,101058.09
2022-12-11T12:42:40.666Z,101069.38
2022-12-11T12:45:07.354Z,101074.59
2022-12-11T12:47:36.017Z,101074.66
2022-12-11T12:50:03.918Z,101078.91
2022-12-11T12:52:39.760Z,101084.28
2022-12-11T12:55:28.808Z,101088.78
2022-12-11T12:58:00.668Z,101089.09
2022-12-11T13:00:38.692Z,101079.38
2022-12-11T13:03:17.181Z,101093.50
2022-12-11T13:05:55.466Z,101090.91
2022-12-11T13:08:34.791Z,101094.34
2022-12-11T13:11:06.056Z,101090.84
2022-12-11T13:13:39.944Z,101089.97
2022-12-11T13:16:15.851Z,101085.38
2022-12-11T13:18:45.813Z,101087.13
2022-12-11T13:21:35.901Z,101094.22
2022-12-11T13:24:25.658Z,101098.16
2022-12-11T13:26:52.435Z,101096.34
2022-12-11T13:29:45.662Z,101088.34
2022-12-11T13:32:18.708Z,101094.34
2022-12-11T13:34:55.556Z,101102.16
2022-12-11T13:37:47.499Z,101102.81
2022-12-11T13:40:25.915Z,101107.13
2022-12-11T13:43:15.951Z,101105.38
2022-12-11T13:45:42.693Z,101108.75
2022-12-11T13:48:29.775Z,101111.28
2022-12-11T13:50:58.240Z,101114.78
2022-12-11T13:53:25.424Z,101116.44
2022-12-11T13:56:05.790Z,101127.06
2022-12-11T13:58:39.129Z,101123.56
2022-12-11T14:01:18.893Z,101120.97
2022-12-11T14:03:58.162Z,101130.81
2022-12-11T14:06:28.056Z,101143.25
2022-12-11T14:08:59.029Z,101136.31
2022-12-11T14:11:36.313Z,101136.44
2022-12-11T14:14:06.765Z,101135.59
2022-12-11T14:16:33.968Z,101136.59
2022-12-11T14:19:08.615Z,101135.75
2022-12-11T14:21:37.462Z,101127.16
2022-12-11T14:24:06.641Z,101130.19
2022-12-11T14:26:35.071Z,101147.25
2022-12-11T14:29:02.988Z,101137.69
2022-12-11T14:31:31.724Z,101140.50
2022-12-11T14:34:06.845Z,101141.56
2022-12-11T14:36:36.055Z,101147.91
2022-12-11T14:39:07.682Z,101142.78
2022-12-11T14:42:03.045Z,101148.22
2022-12-11T14:44:33.576Z,101157.19
2022-12-11T14:47:23.532Z,101153.72
2022-12-11T14:50:07.913Z,101147.66
2022-12-11T14:52:42.471Z,101155.75
2022-12-11T14:55:24.544Z,101164.69
2022-12-11T14:57:57.189Z,101168.34
2022-12-11T15:00:27.568Z,101178.13
2022-12-11T15:03:06.764Z,101180.88
2022-12-11T15:05:40.651Z,101173.00
2022-12-11T15:08:10.843Z,101173.97
2022-12-11T15:10:41.545Z,101174.00
2022-12-11T15:13:09.440Z,101174.13
2022-12-11T15:15:46.656Z,101184.84
2022-12-11T15:18:21.693Z,101189.41
2022-12-11T15:20:58.346Z,101190.41
2022-12-11T15:23:25.434Z,101186.34
2022-12-11T15:25:58.110Z,101191.81
2022-12-11T15:28:35.899Z,101193.63
2022-12-11T15:31:06.545Z,101207.72
2022-12-11T15:33:34.708Z,101206.81
2022-12-11T15:36:06.865Z,101208.59
2022-12-11T15:38:41.200Z,101209.47
2022-12-11T15:41:17.128Z,101213.91
2022-12-11T15:43:44.875Z,101212.22
2022-12-11T15:46:11.672Z,101214.00
2022-12-11T15:48:38.500Z,101217.53
2022-12-11T15:51:05.498Z,101217.56
2022-12-11T15:53:32.244Z,101218.44
2022-12-11T15:55:59.576Z,101215.88
2022-12-11T15:58:27.400Z,101207.22
2022-12-11T16:00:54.377Z,101210.88
2022-12-11T16:03:22.775Z,101204.59
2022-12-11T16:05:51.436Z,101208.09
2022-12-11T16:08:21.344Z,101210.72
2022-12-11T16:10:48.767Z,101210.72
2022-12-11T16:13:15.484Z,101202.69
2022-12-11T16:15:45.552Z,101195.78
2022-12-11T16:18:15.751Z,101207.34
2022-12-11T16:20:44.611Z,101206.38
2022-12-11T16:23:12.938Z,101207.22
2022-12-11T16:25:41.904Z,101200.13
2022-12-11T16:28:11.060Z,101197.69
2022-12-11T16:30:38.383Z,101196.81
2022-12-11T16:33:12.917Z,101194.19
2022-12-11T16:35:42.488Z,101196.75
2022-12-11T16:38:10.263Z,101191.41
2022-12-11T16:40:38.254Z,101187.81
2022-12-11T16:43:05.427Z,101195.03
2022-12-11T16:45:32.633Z,101191.47
2022-12-11T16:48:05.282Z,101189.72
2022-12-11T16:50:32.468Z,101186.34
2022-12-11T16:52:59.399Z,101189.94
2022-12-11T16:55:26.524Z,101190.78
2022-12-11T16:57:53.508Z,101198.66
2022-12-11T17:00:21.123Z,101201.28
2022-12-11T17:02:48.529Z,101198.50
2022-12-11T17:05:15.481Z,101188.66
2022-12-11T17:07:42.258Z,101196.53
2022-12-11T17:10:09.173Z,101200.13
2022-12-11T17:12:36.015Z,101201.78
2022-12-11T17:15:03.673Z,101197.25
2022-12-11T17:17:31.124Z,101195.38
2022-12-11T17:19:57.998Z,101205.91
2022-12-11T17:22:25.269Z,101190.06
2022-12-11T17:24:52.185Z,101192.69
2022-12-11T17:27:20.110Z,101185.50
2022-12-11T17:29:49.600Z,101179.22
2022-12-11T17:32:17.664Z,101177.41
2022-12-11T17:34:45.653Z,101176.72
2022-12-11T17:37:12.408Z,101179.41
2022-12-11T17:39:39.157Z,101177.56
2022-12-11T17:42:27.344Z,101174.88
2022-12-11T17:44:55.637Z,101166.00
2022-12-11T17:47:22.798Z,101165.06
2022-12-11T17:49:49.595Z,101166.16
2022-12-11T17:52:16.581Z,101160.03
2022-12-11T17:54:43.646Z,101153.75
2022-12-11T17:57:10.356Z,101151.97
2022-12-11T17:59:37.870Z,101153.75
2022-12-11T18:02:04.671Z,101151.94
2022-12-11T18:04:31.519Z,101151.03
2022-12-11T18:06:58.859Z,101154.66
2022-12-11T18:09:25.718Z,101153.75
2022-12-11T18:11:53.017Z,101153.03
2022-12-11T18:14:19.732Z,101163.59
2022-12-11T18:16:46.398Z,101154.78
2022-12-11T18:19:13.940Z,101157.44
2022-12-11T18:21:45.648Z,101138.81
2022-12-11T18:24:12.526Z,101141.44
2022-12-11T18:26:42.069Z,101139.78
2022-12-11T18:29:17.785Z,101147.75
2022-12-11T18:31:44.884Z,101132.75
2022-12-11T18:34:11.704Z,101126.47
2022-12-11T18:36:40.734Z,101133.50
2022-12-11T18:39:07.739Z,101138.94
2022-12-11T18:41:36.386Z,101133.53
2022-12-11T18:44:09.697Z,101132.63
2022-12-11T18:46:37.519Z,101137.03
2022-12-11T18:49:04.276Z,101134.41
2022-12-11T18:51:31.169Z,101125.63
2022-12-11T18:53:58.057Z,101131.00
2022-12-11T18:56:25.905Z,101135.50
2022-12-11T18:58:52.698Z,101128.44
2022-12-11T19:01:24.687Z,101135.69
2022-12-11T19:03:58.831Z,101122.66
2022-12-11T19:06:30.386Z,101136.84
2022-12-11T19:08:58.204Z,101139.53
2022-12-11T19:11:27.426Z,101136.03
2022-12-11T19:13:58.639Z,101143.06
2022-12-11T19:16:29.842Z,101141.34
2022-12-11T19:19:02.133Z,101138.72
2022-12-11T19:21:28.893Z,101150.28
2022-12-11T19:23:55.712Z,101155.63
2022-12-11T19:26:24.152Z,101152.03
2022-12-11T19:28:51.554Z,101154.66
2022-12-11T19:31:22.098Z,101158.19
2022-12-11T19:33:49.606Z,101148.47
2022-12-11T19:36:19.024Z,101144.97
2022-12-11T19:38:46.280Z,101145.88
2022-12-11T19:41:21.712Z,101153.88
2022-12-11T19:43:49.731Z,101158.31
2022-12-11T19:46:18.043Z,101146.75
2022-12-11T19:48:45.180Z,101145.75
2022-12-11T19:51:17.497Z,101136.03
2022-12-11T19:53:45.247Z,101142.13
2022-12-11T19:56:13.183Z,101142.06
2022-12-11T19:58:41.784Z,101129.63
2022-12-11T20:01:09.841Z,101129.59
2022-12-11T20:03:36.869Z,101124.41
2022-12-11T20:06:08.549Z,101120.00
2022-12-11T20:08:44.646Z,101119.00
2022-12-11T20:11:17.996Z,101112.78
2022-12-11T20:13:47.130Z,101109.25
2022-12-11T20:16:14.536Z,101111.03
2022-12-11T20:18:41.862Z,101119.00
2022-12-11T20:21:11.884Z,101116.38
2022-12-11T20:23:38.834Z,101108.34
2022-12-11T20:26:19.810Z,101103.91
2022-12-11T20:28:50.119Z,101098.56
2022-12-11T20:31:20.685Z,101102.09
2022-12-11T20:33:49.238Z,101109.41
2022-12-11T20:36:17.454Z,101105.00
2022-12-11T20:38:44.277Z,101096.94
2022-12-11T20:41:17.390Z,101099.59
2022-12-11T20:43:45.539Z,101098.63
2022-12-11T20:46:15.493Z,101095.91
2022-12-11T20:48:43.647Z,101087.91
2022-12-11T20:51:12.816Z,101089.72
2022-12-11T20:53:40.506Z,101078.34
2022-12-11T20:56:16.599Z,101078.13
2022-12-11T20:58:44.360Z,101073.41
2022-12-11T21:01:22.965Z,101071.72
2022-12-11T21:03:49.983Z,101068.31
2022-12-11T21:06:32.735Z,101074.50
2022-12-11T21:09:06.573Z,101069.09
2022-12-11T21:11:33.407Z,101068.94
2022-12-11T21:14:00.255Z,101064.56
2022-12-11T21:16:27.691Z,101061.25
2022-12-11T21:18:58.807Z,101065.63
2022-12-11T21:21:25.750Z,101058.41
2022-12-11T21:23:52.722Z,101055.72
2022-12-11T21:26:19.961Z,101062.88
2022-12-11T21:28:46.828Z,101061.19
2022-12-11T21:31:17.163Z,101049.56
2022-12-11T21:33:44.468Z,101053.00
2022-12-11T21:36:13.170Z,101051.25
2022-12-11T21:38:41.729Z,101053.22
2022-12-11T21:41:15.807Z,101047.66
2022-12-11T21:44:14.633Z,101045.81
2022-12-11T21:46:30.851Z,101045.94
2022-12-11T21:48:57.626Z,101046.66
2022-12-11T21:51:34.083Z,101038.31
2022-12-11T21:54:05.162Z,101033.06
2022-12-11T21:56:32.249Z,101043.84
2022-12-11T21:58:58.982Z,101043.84
2022-12-11T22:01:31.473Z,101036.66
2022-12-11T22:03:59.419Z,101032.28
2022-12-11T22:06:26.100Z,101036.81
2022-12-11T22:08:52.969Z,101035.84
2022-12-11T22:11:23.605Z,101030.28
2022-12-11T22:13:50.364Z,101023.97
2022-12-11T22:16:17.402Z,101015.97
2022-12-11T22:18:44.144Z,101024.78
2022-12-11T22:21:11.266Z,101018.53
2022-12-11T22:23:42.152Z,101020.16
2022-12-11T22:26:10.022Z,101021.03
2022-12-11T22:28:36.701Z,101022.94
2022-12-11T22:31:03.564Z,101023.88
2022-12-11T22:33:30.302Z,101019.34
2022-12-11T22:35:58.321Z,101012.28
2022-12-11T22:38:25.778Z,101014.88
2022-12-11T22:40:53.810Z,101010.44
2022-12-11T22:43:20.841Z,101004.97
2022-12-11T22:45:47.830Z,100997.69
2022-12-11T22:48:15.134Z,100999.50
2022-12-11T22:50:42.048Z,101003.97
2022-12-11T22:53:09.247Z,101001.38
2022-12-11T22:55:39.125Z,100995.16
2022-12-11T22:58:06.840Z,100997.81
2022-12-11T23:00:33.826Z,100995.13
2022-12-11T23:03:00.845Z,100983.66
2022-12-11T23:05:27.862Z,100980.19
2022-12-11T23:07:54.682Z,100989.97
2022-12-11T23:10:21.611Z,101002.41
2022-12-11T23:12:48.300Z,101004.16
2022-12-11T23:15:15.276Z,100986.97
2022-12-11T23:17:42.056Z,101002.34
2022-12-11T23:20:09.535Z,101003.44
2022-12-11T23:22:36.373Z,101005.38
2022-12-11T23:25:03.326Z,101012.50
2022-12-11T23:27:30.025Z,101014.44
2022-12-11T23:29:56.670Z,101016.47
2022-12-11T23:32:23.327Z,101022.81
2022-12-11T23:34:49.988Z,101016.50
2022-12-11T23:37:16.970Z,101020.00
2022-12-11T23:39:43.830Z,101018.25
2022-12-11T23:42:10.547Z,101020.22
2022-12-11T23:44:37.327Z,101009.97
2022-12-11T23:47:04.090Z,101019.78
2022-12-11T23:49:30.954Z,101017.91
2022-12-11T23:51:57.603Z,101014.50
2022-12-11T23:54:24.520Z,101015.59
2022-12-11T23:56:51.301Z,101024.41
2022-12-11T23:59:18.027Z,101023.41
